createdAt,value
2022-12-11T12:57:43.362Z,103.15
2022-12-11T13:00:13.440Z,79.23
2022-12-11T13:02:40.918Z,77.40
2022-12-11T13:12:30.024Z,97.90
2022-12-11T13:17:24.664Z,86.55
2022-12-11T13:19:57.529Z,86.00
2022-12-11T13:22:24.846Z,95.15
2022-12-11T13:37:08.266Z,121.23
2022-12-11T14:09:03.401Z,96.50
2022-12-11T14:11:31.097Z,90.10
2022-12-11T14:13:58.506Z,85.50
2022-12-11T14:16:26.480Z,82.18
2022-12-11T14:18:53.839Z,75.35
2022-12-11T14:21:21.072Z,68.30
2022-12-11T14:23:48.314Z,101.72
2022-12-11T14:26:15.486Z,82.22
2022-12-11T14:28:42.720Z,84.30
2022-12-11T14:31:09.896Z,82.88
2022-12-11T14:33:37.082Z,82.47
2022-12-11T14:36:04.210Z,82.18
2022-12-11T14:38:31.431Z,79.15
2022-12-11T14:40:58.679Z,87.22
2022-12-11T14:43:25.852Z,85.70
2022-12-11T14:45:53.082Z,78.57
2022-12-11T14:48:20.315Z,82.18
2022-12-11T14:50:47.611Z,74.00
2022-12-11T14:53:14.799Z,103.30
2022-12-11T14:55:42.462Z,83.38
2022-12-11T14:58:09.620Z,78.97
2022-12-11T15:00:37.079Z,82.03
2022-12-11T15:03:04.334Z,79.72
2022-12-11T15:05:35.780Z,96.53
2022-12-11T15:08:06.437Z,87.80
2022-12-11T15:10:35.466Z,96.13
2022-12-11T15:13:02.784Z,94.57
2022-12-11T15:15:30.088Z,107.22
2022-12-11T15:17:57.377Z,87.97
2022-12-11T15:20:24.584Z,100.85
2022-12-11T15:22:52.281Z,102.78
2022-12-11T15:25:19.523Z,117.63
2022-12-11T15:27:46.773Z,113.32
2022-12-11T15:30:14.212Z,111.50
2022-12-11T15:32:41.536Z,116.13
2022-12-11T15:35:08.765Z,145.45
2022-12-11T15:37:40.174Z,131.02
2022-12-11T15:40:07.852Z,133.50
2022-12-11T15:42:35.013Z,123.03
2022-12-11T15:45:02.812Z,134.43
2022-12-11T15:47:30.100Z,108.07
2022-12-11T15:49:57.354Z,139.23
2022-12-11T15:52:24.594Z,134.20
2022-12-11T15:54:51.914Z,134.15
2022-12-11T15:57:19.127Z,146.32
2022-12-11T15:59:46.507Z,140.20
2022-12-11T16:02:14.014Z,158.90
2022-12-11T16:04:41.497Z,127.85
2022-12-11T16:07:08.748Z,123.40
2022-12-11T16:09:35.965Z,176.35
2022-12-11T16:12:03.110Z,154.35
2022-12-11T16:14:30.448Z,163.98
2022-12-11T16:16:57.706Z,194.25
2022-12-11T16:19:26.992Z,153.48
2022-12-11T16:21:54.216Z,182.38
2022-12-11T16:24:21.477Z,136.90
2022-12-11T16:26:48.626Z,220.10
2022-12-11T16:29:15.841Z,218.30
2022-12-11T16:31:43.067Z,187.57
2022-12-11T16:34:10.261Z,195.48
2022-12-11T16:36:38.061Z,212.43
2022-12-11T16:39:05.281Z,234.40
2022-12-11T16:41:32.647Z,233.23
2022-12-11T16:43:59.888Z,199.23
2022-12-11T16:46:27.115Z,195.95
2022-12-11T16:48:54.395Z,216.00
2022-12-11T16:51:21.779Z,175.85
2022-12-11T16:53:49.019Z,192.70
2022-12-11T16:56:16.168Z,180.68
2022-12-11T16:58:43.405Z,188.30
2022-12-11T17:01:12.212Z,177.25
2022-12-11T17:03:39.479Z,149.07
2022-12-11T17:06:06.738Z,147.95
2022-12-11T17:08:33.936Z,153.60
2022-12-11T17:11:01.174Z,158.50
2022-12-11T17:13:31.720Z,185.10
2022-12-11T17:18:30.593Z,179.50
2022-12-11T17:20:57.836Z,198.25
2022-12-11T20:55:32.882Z,84.55
2022-12-11T20:58:00.078Z,69.47
2022-12-11T21:00:27.405Z,74.03
2022-12-11T21:02:54.580Z,72.13
2022-12-11T21:05:22.026Z,74.90
2022-12-11T21:07:49.301Z,64.43
2022-12-11T21:10:16.509Z,65.00
2022-12-11T21:12:43.984Z,53.95
2022-12-11T21:15:11.566Z,65.47
2022-12-11T21:17:39.077Z,59.50
2022-12-11T21:20:08.478Z,63.95
2022-12-11T21:22:35.703Z,57.58
2022-12-11T21:25:02.912Z,56.13
2022-12-11T21:27:30.150Z,61.08
2022-12-11T21:29:57.457Z,63.53
2022-12-11T21:32:24.643Z,56.25
2022-12-11T21:34:52.156Z,48.30
2022-12-11T21:37:19.382Z,64.55
2022-12-11T21:39:46.657Z,58.67
2022-12-11T21:42:13.856Z,56.65
2022-12-11T21:45:31.513Z,63.63
2022-12-11T21:47:31.247Z,66.20
2022-12-11T21:49:58.608Z,58.50
2022-12-11T21:52:25.750Z,72.78
2022-12-11T21:54:55.303Z,68.43
2022-12-11T21:57:26.505Z,75.95
2022-12-11T21:59:54.203Z,73.75
2022-12-11T22:02:21.475Z,65.20
2022-12-11T22:04:48.842Z,65.88
2022-12-11T22:07:16.351Z,63.85
2022-12-11T22:09:43.617Z,70.97
2022-12-11T22:12:12.096Z,62.78
2022-12-11T22:14:39.297Z,72.15
2022-12-11T22:17:06.525Z,69.53
2022-12-11T22:19:33.766Z,63.65
2022-12-11T22:22:01.006Z,71.72
2022-12-11T22:24:28.241Z,60.85
2022-12-11T22:26:55.496Z,58.97
2022-12-11T22:29:22.787Z,61.88
2022-12-11T22:31:50.144Z,61.55
2022-12-11T22:34:17.545Z,62.83
2022-12-11T22:36:44.733Z,58.83
2022-12-11T22:39:11.921Z,49.72
2022-12-11T22:41:42.257Z,54.13
2022-12-11T22:44:09.586Z,58.00
2022-12-11T22:46:37.573Z,54.72
2022-12-11T22:49:04.793Z,48.45
2022-12-11T22:51:31.954Z,47.22
2022-12-11T22:53:59.355Z,50.58
2022-12-11T22:56:26.675Z,52.13
2022-12-11T22:58:53.993Z,49.03
2022-12-11T23:01:21.279Z,42.38
2022-12-11T23:03:48.812Z,37.88
2022-12-11T23:06:15.956Z,35.13
2022-12-11T23:08:43.243Z,32.35
2022-12-11T23:11:10.566Z,37.63
2022-12-11T23:13:37.806Z,29.48
2022-12-11T23:16:04.992Z,32.53
2022-12-11T23:18:32.853Z,30.67
2022-12-11T23:21:00.071Z,27.15
2022-12-11T23:23:27.332Z,29.88
2022-12-11T23:25:55.576Z,31.30
2022-12-11T23:28:22.779Z,37.05
2022-12-11T23:30:50.000Z,28.48
2022-12-11T23:33:17.374Z,29.42
2022-12-11T23:35:45.363Z,25.08
2022-12-11T23:38:12.709Z,21.67
2022-12-11T23:40:39.869Z,25.27
2022-12-11T23:43:07.173Z,26.70
2022-12-11T23:45:34.324Z,23.25
2022-12-11T23:48:01.575Z,26.40
2022-12-11T23:50:31.167Z,19.95
2022-12-11T23:52:58.358Z,23.98
2022-12-11T23:55:25.616Z,22.17
2022-12-11T23:57:53.126Z,23.80
